Aeroporto :
LOGIN :

Iscrizione | Disclaimer

   EN    FR    IT 

 










Sommario :    VFR   VFR Marginale   IFR   IFR Intensivo   IFR Molto Intensivo
Visibilità : 
Base nubi : 
>= 8 km
>= 3000ft
5 / 8 km
1000 / 3000 ft
1500m / 5 km
500 / 1000 ft
800 / 1500m
200 / 500 ft
< 800m
< 200 ft
Simboli :   Temporali  Nebbia  Neve Forte  Precipitazioni Forti  Vento > 20 kt
SIGMETs :   Varie  Temporali  Ghiacco  Turbolenza  Onda orograficha  Ceneri Vulcaniche






- Altitudine del aeroporto : 1071 ft
- Codice IATA : LWO


UKLL - L'viv

ULTIMO METAR :
  • 021630Z 26004MPS CAVOK 10/M10 Q1010 R31/CLRD// NOSIG

METARs OBSOLETI :
  • 021600Z 26004MPS 230V290 CAVOK 10/M09 Q1010 R31/CLRD// NOSIG
  • 021530Z 25004MPS 220V290 CAVOK 11/M08 Q1011 R31/CLRD// NOSIG
  • 021500Z 26005MPS 230V290 CAVOK 11/M09 Q1011 R31/D NOSIG
  • 021430Z 28005G10MPS CAVOK 11/M09 Q1011 R31/D NOSIG
  • 021400Z 26006MPS 220V300 CAVOK 11/M08 Q1011 R31/D NOSIG

TAF TAF UKLL
Valido dal 02 a 12 ore il 03 a 12 ore UTC


021103Z 0212/0312 26005G12MPS 9999 SCT030 TX11/0312Z TNM01/0304Z
BECMG 0217/0218 20003MPS 3000 BR SCT007
BECMG 0306/0307 25007G13MPS 9999 NSW SCT030



MetMap, La meteo Aeronautica in un colpo d'occhio ! - Copyright ORBIFLY Dicembre 2007 - Disclaimer

ORBIFLY MET'MAP TEAM :

Programmazione e sviluppo : Alexandra Zaïnal
Concezione : Baudouin d'Aumeries
Aiuto per la programmazione : Marc-Olivier Méhu
Supporto tecnico e logistico : Manuel Goepfert
Aiuto per la traduzione : Arnaldo La Scala

Contatto : metmap@orbifly.com




FONTI E CREDITI :

   NOAA